createdAt,value
2023-01-09T00:02:04.314Z,9.33
2023-01-09T00:04:31.026Z,31.33
2023-01-09T00:06:57.831Z,9.23
2023-01-09T00:09:24.799Z,15.47
2023-01-09T00:11:52.387Z,11.87
2023-01-09T00:14:19.696Z,5.50
2023-01-09T00:16:46.466Z,6.50
2023-01-09T00:19:13.226Z,8.43
2023-01-09T00:21:40.268Z,6.47
2023-01-09T00:24:07.411Z,6.50
2023-01-09T00:26:35.716Z,6.37
2023-01-09T00:29:03.859Z,8.07
2023-01-09T00:31:31.096Z,3.33
2023-01-09T00:33:57.669Z,4.60
2023-01-09T00:36:24.396Z,6.03
2023-01-09T00:38:51.404Z,4.00
2023-01-09T00:41:27.631Z,4.00
2023-01-09T00:43:58.336Z,5.60
2023-01-09T00:46:33.880Z,5.70
2023-01-09T00:49:04.561Z,5.80
2023-01-09T00:51:31.328Z,3.20
2023-01-09T00:53:58.293Z,4.80
2023-01-09T00:56:26.020Z,7.57
2023-01-09T00:58:53.547Z,5.87
2023-01-09T01:01:20.445Z,2.20
2023-01-09T01:03:47.420Z,4.83
2023-01-09T01:06:32.608Z,4.27
2023-01-09T01:08:59.250Z,2.73
2023-01-09T01:11:25.896Z,5.10
2023-01-09T01:13:52.629Z,2.77
2023-01-09T01:16:19.811Z,2.30
2023-01-09T01:18:46.628Z,4.57
2023-01-09T01:21:14.329Z,3.83
2023-01-09T01:23:48.069Z,2.47
2023-01-09T01:26:19.003Z,3.33
2023-01-09T01:28:52.022Z,3.17
2023-01-09T01:31:19.653Z,2.47
2023-01-09T01:33:46.925Z,2.60
2023-01-09T01:36:18.208Z,2.70
2023-01-09T01:38:48.645Z,2.20
2023-01-09T01:41:29.743Z,5.87
2023-01-09T01:44:03.715Z,2.43
2023-01-09T01:46:32.847Z,2.53
2023-01-09T01:49:20.498Z,2.17
2023-01-09T01:51:52.026Z,2.03
2023-01-09T01:54:26.037Z,2.13
2023-01-09T01:56:59.814Z,3.90
2023-01-09T01:59:32.930Z,2.03
2023-01-09T02:02:02.297Z,4.10
2023-01-09T02:04:30.897Z,1.87
2023-01-09T02:07:00.643Z,1.73
2023-01-09T02:09:28.013Z,1.80
2023-01-09T02:11:57.720Z,4.20
2023-01-09T02:14:27.705Z,1.57
2023-01-09T02:17:24.683Z,3.90
2023-01-09T02:20:27.518Z,1.80
2023-01-09T02:23:30.287Z,2.00
2023-01-09T02:26:38.893Z,1.60
2023-01-09T02:29:26.786Z,2.20
2023-01-09T02:32:04.041Z,1.90
2023-01-09T02:35:13.265Z,3.50
2023-01-09T02:37:57.942Z,3.73
2023-01-09T02:40:38.754Z,3.20
2023-01-09T02:43:07.336Z,1.97
2023-01-09T02:45:34.047Z,2.77
2023-01-09T02:48:00.728Z,3.30
2023-01-09T02:50:41.454Z,1.90
2023-01-09T02:53:31.030Z,2.67
2023-01-09T02:56:29.476Z,1.77
2023-01-09T02:59:07.090Z,2.13
2023-01-09T03:01:49.885Z,5.20
2023-01-09T03:04:22.917Z,2.60
2023-01-09T03:06:59.805Z,3.47
2023-01-09T03:09:29.216Z,2.47
2023-01-09T03:12:02.475Z,2.60
2023-01-09T03:14:35.003Z,1.93
2023-01-09T03:17:06.070Z,1.70
2023-01-09T03:19:34.206Z,1.80
2023-01-09T03:22:01.169Z,3.57
2023-01-09T03:24:27.969Z,1.77
2023-01-09T03:26:55.331Z,1.77
2023-01-09T03:29:22.346Z,1.50
2023-01-09T03:31:49.039Z,2.43
2023-01-09T03:34:15.652Z,2.43
2023-01-09T03:36:42.268Z,1.80
2023-01-09T03:39:09.164Z,5.10
2023-01-09T03:41:35.872Z,2.67
2023-01-09T03:44:02.550Z,2.90
2023-01-09T03:46:29.258Z,2.30
2023-01-09T03:48:55.936Z,2.67
2023-01-09T03:51:22.624Z,2.47
2023-01-09T03:53:49.318Z,2.70
2023-01-09T03:56:16.007Z,2.40
2023-01-09T03:58:42.623Z,1.80
2023-01-09T04:01:12.524Z,2.67
2023-01-09T04:03:39.524Z,3.77
2023-01-09T04:06:06.470Z,1.43
2023-01-09T04:08:33.443Z,1.50
2023-01-09T04:11:00.165Z,1.40
2023-01-09T04:13:26.840Z,1.00
2023-01-09T04:15:53.799Z,1.20
2023-01-09T04:18:20.539Z,2.50
2023-01-09T04:20:48.440Z,2.10
2023-01-09T04:23:15.488Z,4.70
2023-01-09T04:25:42.125Z,1.40
2023-01-09T04:28:09.152Z,2.10
2023-01-09T04:30:35.917Z,1.27
2023-01-09T04:33:02.708Z,1.40
2023-01-09T04:35:29.335Z,1.40
2023-01-09T04:37:56.144Z,1.70
2023-01-09T04:40:22.826Z,1.43
2023-01-09T04:42:49.466Z,1.23
2023-01-09T04:45:17.231Z,1.23
2023-01-09T04:47:44.596Z,1.30
2023-01-09T04:50:12.783Z,1.30
2023-01-09T04:52:39.787Z,1.23
2023-01-09T04:55:07.771Z,1.20
2023-01-09T04:57:35.481Z,1.50
2023-01-09T05:00:02.628Z,1.07
2023-01-09T05:02:30.881Z,3.23
2023-01-09T05:04:57.593Z,1.40
2023-01-09T05:07:24.258Z,1.60
2023-01-09T05:09:50.919Z,1.07
2023-01-09T05:12:17.830Z,1.23
2023-01-09T05:14:44.440Z,1.43
2023-01-09T05:17:11.098Z,2.87
2023-01-09T05:19:37.895Z,1.50
2023-01-09T05:22:04.757Z,1.33
2023-01-09T05:24:31.622Z,1.47
2023-01-09T05:26:58.439Z,1.00
2023-01-09T05:29:25.331Z,1.77
2023-01-09T05:31:52.775Z,1.50
2023-01-09T05:34:20.267Z,2.17
2023-01-09T05:36:47.018Z,3.00
2023-01-09T05:39:13.702Z,1.60
2023-01-09T05:41:40.416Z,1.53
2023-01-09T05:44:07.153Z,3.60
2023-01-09T05:46:33.951Z,1.97
2023-01-09T05:49:00.648Z,4.57
2023-01-09T05:51:27.438Z,3.63
2023-01-09T05:53:54.217Z,2.03
2023-01-09T05:56:21.135Z,1.03
2023-01-09T05:58:48.260Z,1.73
2023-01-09T06:01:14.954Z,2.60
2023-01-09T06:03:41.922Z,1.60
2023-01-09T06:06:08.732Z,1.57
2023-01-09T06:08:35.345Z,2.00
2023-01-09T06:11:02.026Z,6.03
2023-01-09T06:13:28.725Z,1.70
2023-01-09T06:15:55.419Z,8.43
2023-01-09T06:18:22.182Z,5.73
2023-01-09T06:20:48.797Z,3.33
2023-01-09T06:23:15.427Z,2.50
2023-01-09T06:25:42.497Z,5.53
2023-01-09T06:28:09.313Z,7.90
2023-01-09T06:30:36.128Z,3.60
2023-01-09T06:33:02.782Z,5.43
2023-01-09T06:35:29.569Z,2.30
2023-01-09T06:37:57.089Z,1.43
2023-01-09T06:40:23.802Z,2.13
2023-01-09T06:42:50.480Z,4.70
2023-01-09T06:45:17.722Z,10.13
2023-01-09T06:47:44.489Z,2.23
2023-01-09T06:50:11.762Z,1.80
2023-01-09T06:52:38.830Z,6.23
2023-01-09T06:55:06.202Z,3.97
2023-01-09T06:57:32.832Z,3.23
2023-01-09T06:59:59.564Z,4.37
2023-01-09T07:02:26.398Z,1.93
2023-01-09T07:04:53.027Z,4.23
2023-01-09T07:07:22.121Z,4.43
2023-01-09T07:09:48.882Z,2.40
2023-01-09T07:12:15.573Z,2.20
2023-01-09T07:14:42.280Z,3.37
2023-01-09T07:17:12.323Z,2.13
2023-01-09T07:19:39.108Z,1.57
2023-01-09T07:22:05.797Z,2.27
2023-01-09T07:24:32.413Z,6.23
2023-01-09T07:26:59.041Z,2.87
2023-01-09T07:29:25.762Z,8.53
2023-01-09T07:31:52.393Z,5.23
2023-01-09T07:34:19.566Z,5.40
2023-01-09T07:36:47.844Z,7.83
2023-01-09T07:39:17.565Z,3.47
2023-01-09T07:41:45.414Z,4.83
2023-01-09T07:44:13.113Z,6.03
2023-01-09T07:46:40.313Z,4.13
2023-01-09T07:49:07.388Z,3.57
2023-01-09T07:51:34.144Z,2.73
2023-01-09T07:54:00.804Z,3.50
2023-01-09T07:56:27.701Z,4.07
2023-01-09T07:58:54.289Z,4.67
2023-01-09T08:01:21.069Z,5.33
2023-01-09T08:03:47.863Z,6.00
2023-01-09T08:06:18.920Z,4.60
2023-01-09T08:08:46.539Z,3.93
2023-01-09T08:11:13.452Z,3.40
2023-01-09T08:13:40.622Z,7.40
2023-01-09T08:16:07.535Z,5.47
2023-01-09T08:18:34.551Z,9.67
2023-01-09T08:21:01.113Z,5.43
2023-01-09T08:23:27.798Z,8.00
2023-01-09T08:25:54.491Z,6.27
2023-01-09T08:28:21.144Z,5.63
2023-01-09T08:30:47.940Z,2.07
2023-01-09T08:33:15.324Z,7.97
2023-01-09T08:35:44.090Z,3.63
2023-01-09T08:38:11.247Z,4.53
2023-01-09T08:40:38.136Z,8.37
2023-01-09T08:43:23.171Z,3.87
2023-01-09T08:46:08.612Z,7.87
2023-01-09T08:48:35.368Z,5.90
2023-01-09T08:51:02.360Z,3.33
2023-01-09T08:53:30.419Z,3.57
2023-01-09T08:55:57.128Z,2.67
2023-01-09T08:58:23.795Z,2.50
2023-01-09T09:00:50.585Z,5.57
2023-01-09T09:03:17.729Z,5.73
2023-01-09T09:05:46.682Z,4.17
2023-01-09T09:08:13.817Z,3.37
2023-01-09T09:10:40.451Z,3.47
2023-01-09T09:13:07.158Z,7.43
2023-01-09T09:15:34.576Z,9.07
2023-01-09T09:18:03.632Z,4.77
2023-01-09T09:20:35.796Z,7.77
2023-01-09T09:23:02.863Z,6.00
2023-01-09T09:25:29.687Z,13.27
2023-01-09T09:27:56.466Z,6.53
2023-01-09T09:30:24.119Z,5.10
2023-01-09T09:32:50.909Z,6.87
2023-01-09T09:35:18.128Z,4.87
2023-01-09T09:37:54.275Z,11.03
2023-01-09T09:40:41.946Z,11.77
2023-01-09T09:43:57.865Z,11.47
2023-01-09T09:46:37.875Z,6.23
2023-01-09T09:49:18.949Z,6.43
2023-01-09T09:52:03.953Z,4.20
2023-01-09T09:54:35.204Z,10.83
2023-01-09T09:57:06.713Z,8.00
2023-01-09T09:59:37.048Z,7.27
2023-01-09T10:02:09.840Z,6.97
2023-01-09T10:04:41.003Z,3.60
2023-01-09T10:07:20.192Z,7.60
2023-01-09T10:10:00.516Z,2.70
2023-01-09T10:12:33.632Z,3.17
2023-01-09T10:15:06.899Z,3.40
2023-01-09T10:17:59.912Z,3.93
2023-01-09T10:20:38.549Z,6.70
2023-01-09T10:23:28.132Z,5.43
2023-01-09T10:26:09.924Z,1.77
2023-01-09T10:29:15.174Z,4.13
2023-01-09T10:31:58.062Z,5.07
2023-01-09T10:34:40.621Z,5.33
2023-01-09T10:37:18.591Z,3.70
2023-01-09T10:40:07.813Z,3.53
2023-01-09T10:42:44.547Z,2.97
2023-01-09T10:45:21.000Z,4.10
2023-01-09T10:47:48.427Z,7.57
2023-01-09T10:50:26.701Z,4.07
2023-01-09T10:52:56.135Z,2.83
2023-01-09T10:55:44.697Z,3.03
2023-01-09T10:58:22.787Z,4.03
2023-01-09T11:00:50.993Z,13.60
2023-01-09T11:03:22.514Z,11.50
2023-01-09T11:05:54.399Z,7.87
2023-01-09T11:08:33.747Z,9.17
2023-01-09T11:11:02.059Z,4.70
2023-01-09T11:13:31.800Z,6.53
2023-01-09T11:16:10.592Z,6.43
2023-01-09T11:18:49.777Z,7.83
2023-01-09T11:21:40.595Z,4.33
2023-01-09T11:24:19.471Z,8.60
2023-01-09T11:26:50.557Z,7.87
2023-01-09T11:29:20.136Z,6.03
2023-01-09T11:31:55.866Z,6.87
2023-01-09T11:34:25.504Z,5.40
2023-01-09T11:36:54.802Z,8.60
2023-01-09T11:39:26.800Z,5.20
2023-01-09T11:41:57.112Z,7.93
2023-01-09T11:44:24.726Z,7.53
2023-01-09T11:46:51.701Z,3.60
2023-01-09T11:49:24.522Z,4.97
2023-01-09T11:52:17.272Z,5.23
2023-01-09T11:54:56.286Z,3.07
2023-01-09T11:57:24.883Z,5.00
2023-01-09T11:59:51.778Z,3.47
2023-01-09T12:02:38.891Z,8.07
2023-01-09T12:05:11.221Z,2.43
2023-01-09T12:07:53.473Z,2.03
2023-01-09T12:10:57.305Z,2.80
2023-01-09T12:13:46.972Z,1.87
2023-01-09T12:16:34.662Z,3.03
2023-01-09T12:19:26.982Z,4.20
2023-01-09T12:22:07.901Z,2.27
2023-01-09T12:24:56.431Z,1.77
2023-01-09T12:27:33.449Z,3.83
2023-01-09T12:30:16.940Z,3.20
2023-01-09T12:33:21.793Z,3.77
2023-01-09T12:36:01.531Z,5.40
2023-01-09T12:38:34.382Z,3.40
2023-01-09T12:41:00.932Z,4.17
2023-01-09T12:43:39.594Z,3.63
2023-01-09T12:46:18.077Z,4.67
2023-01-09T12:48:59.771Z,2.07
2023-01-09T12:51:46.255Z,3.93
2023-01-09T12:54:23.652Z,5.20
2023-01-09T12:57:00.844Z,5.37
2023-01-09T12:59:46.070Z,5.53
2023-01-09T13:02:27.877Z,13.27
2023-01-09T13:04:57.501Z,13.90
2023-01-09T13:07:33.920Z,17.73
2023-01-09T13:10:19.669Z,17.07
2023-01-09T13:12:49.164Z,8.37
2023-01-09T13:15:30.555Z,4.17
2023-01-09T13:18:14.128Z,3.60
2023-01-09T13:20:47.994Z,2.37
2023-01-09T13:23:28.932Z,3.03
2023-01-09T13:26:00.608Z,2.17
2023-01-09T13:28:53.797Z,1.53
2023-01-09T13:31:56.611Z,3.40
2023-01-09T13:34:26.772Z,3.93
2023-01-09T13:36:56.598Z,4.87
2023-01-09T13:39:26.504Z,3.37
2023-01-09T13:42:19.358Z,2.10
2023-01-09T13:44:48.528Z,4.63
2023-01-09T13:47:25.026Z,5.67
2023-01-09T13:49:51.819Z,5.67
2023-01-09T13:52:24.329Z,3.90
2023-01-09T13:54:59.995Z,2.97
2023-01-09T13:57:29.712Z,3.63
2023-01-09T14:00:19.225Z,4.00
2023-01-09T14:02:46.792Z,2.23
2023-01-09T14:05:15.585Z,2.53
2023-01-09T14:07:45.325Z,2.57
2023-01-09T14:10:30.995Z,5.33
2023-01-09T14:12:58.210Z,1.73
2023-01-09T14:15:36.230Z,2.20
2023-01-09T14:18:15.650Z,3.73
2023-01-09T14:20:46.591Z,4.43
2023-01-09T14:23:52.064Z,2.60
2023-01-09T14:26:43.477Z,5.57
2023-01-09T14:29:47.297Z,2.73
2023-01-09T14:32:22.694Z,4.23
2023-01-09T14:34:58.828Z,2.17
2023-01-09T14:37:27.969Z,2.93
2023-01-09T14:39:56.568Z,6.87
2023-01-09T14:42:28.942Z,5.87
2023-01-09T14:45:06.587Z,4.13
2023-01-09T14:47:51.975Z,5.83
2023-01-09T14:50:28.423Z,1.73
2023-01-09T14:53:04.717Z,2.83
2023-01-09T14:55:36.411Z,5.03
2023-01-09T14:58:20.842Z,2.67
2023-01-09T15:01:08.461Z,7.30
2023-01-09T15:03:42.757Z,2.97
2023-01-09T15:06:15.256Z,4.80
2023-01-09T15:08:46.140Z,2.67
2023-01-09T15:11:13.973Z,2.80
2023-01-09T15:13:47.690Z,2.97
2023-01-09T15:16:19.218Z,5.37
2023-01-09T15:18:56.122Z,2.40
2023-01-09T15:21:27.599Z,6.13
2023-01-09T15:23:54.319Z,1.60
2023-01-09T15:26:30.168Z,4.37
2023-01-09T15:29:15.427Z,1.73
2023-01-09T15:31:45.040Z,2.33
2023-01-09T15:34:21.293Z,2.93
2023-01-09T15:36:49.390Z,5.03
2023-01-09T15:39:31.543Z,10.70
2023-01-09T15:42:19.042Z,9.80
2023-01-09T15:44:48.795Z,9.77
2023-01-09T15:47:20.337Z,5.90
2023-01-09T15:49:47.540Z,3.87
2023-01-09T15:52:16.826Z,8.63
2023-01-09T15:54:46.590Z,7.60
2023-01-09T15:57:25.602Z,5.27
2023-01-09T15:59:57.379Z,5.50
2023-01-09T16:02:44.607Z,4.67
2023-01-09T16:05:19.257Z,3.87
2023-01-09T16:07:47.793Z,6.63
2023-01-09T16:10:29.196Z,5.43
2023-01-09T16:12:56.311Z,5.43
2023-01-09T16:15:23.244Z,3.47
2023-01-09T16:18:17.665Z,3.33
2023-01-09T16:20:45.400Z,2.93
2023-01-09T16:23:24.228Z,6.30
2023-01-09T16:26:03.632Z,3.57
2023-01-09T16:28:30.804Z,4.17
2023-01-09T16:31:09.108Z,7.23
2023-01-09T16:33:43.426Z,6.83
2023-01-09T16:36:10.848Z,5.33
2023-01-09T16:38:37.484Z,6.30
2023-01-09T16:41:25.086Z,8.10
2023-01-09T16:43:51.956Z,7.17
2023-01-09T16:46:21.239Z,7.07
2023-01-09T16:48:48.636Z,5.43
2023-01-09T16:51:21.700Z,7.93
2023-01-09T16:53:49.764Z,7.00
2023-01-09T16:56:29.715Z,8.23
2023-01-09T16:58:56.825Z,5.93
2023-01-09T17:01:23.953Z,4.40
2023-01-09T17:03:52.473Z,5.13
2023-01-09T17:06:27.070Z,6.03
2023-01-09T17:08:53.745Z,6.17
2023-01-09T17:11:24.295Z,4.70
2023-01-09T17:13:51.096Z,4.17
2023-01-09T17:16:18.409Z,5.10
2023-01-09T17:18:45.661Z,7.13
2023-01-09T17:21:25.089Z,6.20
2023-01-09T17:24:10.325Z,4.73
2023-01-09T17:26:57.186Z,7.83
2023-01-09T17:29:24.464Z,6.33
2023-01-09T17:31:51.118Z,5.83
2023-01-09T17:34:17.811Z,8.70
2023-01-09T17:36:44.811Z,4.30
2023-01-09T17:39:16.357Z,5.60
2023-01-09T17:41:44.978Z,6.07
2023-01-09T17:44:12.082Z,7.40
2023-01-09T17:46:41.798Z,11.83
2023-01-09T17:49:20.565Z,6.03
2023-01-09T17:51:48.017Z,5.73
2023-01-09T17:54:14.895Z,6.83
2023-01-09T17:56:49.196Z,7.77
2023-01-09T17:59:16.332Z,6.80
2023-01-09T18:01:44.640Z,10.30
2023-01-09T18:04:11.841Z,7.60
2023-01-09T18:06:38.920Z,7.73
2023-01-09T18:09:07.182Z,9.13
2023-01-09T18:11:34.302Z,6.53
2023-01-09T18:14:01.350Z,7.03
2023-01-09T18:16:29.350Z,10.27
2023-01-09T18:18:58.651Z,7.03
2023-01-09T18:21:27.053Z,17.17
2023-01-09T18:23:54.402Z,12.97
2023-01-09T18:26:22.213Z,11.00
2023-01-09T18:28:51.646Z,10.63
2023-01-09T18:31:22.889Z,12.67
2023-01-09T18:33:54.183Z,9.93
2023-01-09T18:36:23.735Z,19.33
2023-01-09T18:38:53.878Z,14.03
2023-01-09T18:41:21.535Z,14.97
2023-01-09T18:43:52.361Z,19.50
2023-01-09T18:46:23.958Z,14.93
2023-01-09T18:48:55.525Z,20.80
2023-01-09T18:51:23.778Z,22.30
2023-01-09T18:53:51.093Z,20.27
2023-01-09T18:56:19.982Z,14.17
2023-01-09T18:58:47.862Z,11.27
2023-01-09T19:01:15.374Z,11.77
2023-01-09T19:03:42.308Z,11.57
2023-01-09T19:06:09.689Z,8.70
2023-01-09T19:08:37.179Z,8.93
2023-01-09T19:11:04.639Z,9.53
2023-01-09T19:13:34.255Z,7.70
2023-01-09T19:16:02.461Z,6.53
2023-01-09T19:18:33.572Z,14.57
2023-01-09T19:21:01.223Z,4.80
2023-01-09T19:23:28.086Z,9.10
2023-01-09T19:25:54.973Z,22.33
2023-01-09T19:28:22.010Z,12.07
2023-01-09T19:30:55.810Z,12.00
2023-01-09T19:33:24.667Z,13.23
2023-01-09T19:35:52.695Z,8.93
2023-01-09T19:38:22.511Z,11.97
2023-01-09T19:40:49.436Z,6.70
2023-01-09T19:43:26.766Z,7.53
2023-01-09T19:45:57.014Z,3.77
2023-01-09T19:48:27.034Z,5.40
2023-01-09T19:51:22.164Z,8.90
2023-01-09T19:56:35.040Z,6.50
2023-01-09T19:59:03.488Z,4.63
2023-01-09T20:01:33.234Z,5.43
2023-01-09T20:04:04.187Z,5.13
2023-01-09T20:06:31.510Z,3.47
2023-01-09T20:09:00.838Z,6.40
2023-01-09T20:11:30.509Z,5.60
2023-01-09T20:13:57.158Z,9.37
2023-01-09T20:16:30.419Z,5.23
2023-01-09T20:19:00.582Z,3.90
2023-01-09T20:21:28.537Z,9.23
2023-01-09T20:23:58.084Z,8.13
2023-01-09T20:26:25.858Z,3.30
2023-01-09T20:28:53.560Z,4.20
2023-01-09T20:31:21.553Z,11.33
2023-01-09T20:33:51.147Z,4.30
2023-01-09T20:36:19.491Z,5.00
2023-01-09T20:38:46.118Z,4.40
2023-01-09T20:41:22.728Z,4.67
2023-01-09T20:43:58.033Z,10.17
2023-01-09T20:46:27.635Z,4.00
2023-01-09T20:48:59.193Z,4.73
2023-01-09T20:51:26.137Z,4.93
2023-01-09T20:53:55.891Z,6.03
2023-01-09T20:56:23.817Z,5.83
2023-01-09T20:58:51.256Z,19.77
2023-01-09T21:01:18.876Z,16.60
2023-01-09T21:03:46.103Z,9.93
2023-01-09T21:06:15.232Z,8.47
2023-01-09T21:08:42.960Z,9.43
2023-01-09T21:11:10.820Z,7.27
2023-01-09T21:13:38.248Z,13.27
2023-01-09T21:16:14.213Z,11.67
2023-01-09T21:18:43.366Z,7.73
2023-01-09T21:21:14.585Z,8.37
2023-01-09T21:23:49.180Z,6.90
2023-01-09T21:26:16.772Z,6.70
2023-01-09T21:28:48.746Z,3.73
2023-01-09T21:31:20.827Z,6.13
2023-01-09T21:33:49.134Z,6.67
2023-01-09T21:36:17.153Z,3.10
2023-01-09T21:38:43.831Z,3.33
2023-01-09T21:41:28.751Z,3.17
2023-01-09T21:44:14.192Z,3.87
2023-01-09T21:46:53.062Z,4.47
2023-01-09T21:49:20.906Z,2.93
2023-01-09T21:51:47.548Z,5.00
2023-01-09T21:54:14.536Z,4.47
2023-01-09T21:56:41.151Z,2.23
2023-01-09T21:59:08.163Z,6.60
2023-01-09T22:01:34.977Z,6.30
2023-01-09T22:04:01.912Z,5.60
2023-01-09T22:06:28.755Z,14.67
2023-01-09T22:08:56.181Z,6.57
2023-01-09T22:11:23.647Z,4.57
2023-01-09T22:13:50.890Z,5.27
2023-01-09T22:16:18.443Z,9.50
2023-01-09T22:18:45.307Z,4.47
2023-01-09T22:21:12.287Z,6.97
2023-01-09T22:23:39.110Z,4.83
2023-01-09T22:26:10.865Z,6.27
2023-01-09T22:28:37.605Z,4.67
2023-01-09T22:31:09.631Z,5.50
2023-01-09T22:33:37.244Z,7.63
2023-01-09T22:36:09.975Z,4.87
2023-01-09T22:38:37.192Z,4.93
2023-01-09T22:41:04.755Z,3.57
2023-01-09T22:43:31.878Z,6.90
2023-01-09T22:46:03.220Z,6.73
2023-01-09T22:48:34.659Z,4.90
2023-01-09T22:51:02.741Z,3.17
2023-01-09T22:53:30.689Z,3.40
2023-01-09T22:55:59.040Z,4.63
2023-01-09T22:58:27.761Z,3.80
2023-01-09T23:00:54.800Z,4.20
2023-01-09T23:03:21.492Z,5.30
2023-01-09T23:05:48.865Z,3.20
2023-01-09T23:08:15.940Z,5.03
2023-01-09T23:10:42.701Z,5.67
2023-01-09T23:13:09.411Z,6.47
2023-01-09T23:15:36.008Z,3.77
2023-01-09T23:18:02.831Z,3.57
2023-01-09T23:20:29.535Z,2.90
2023-01-09T23:22:58.302Z,3.60
2023-01-09T23:25:25.537Z,3.03
2023-01-09T23:27:52.382Z,3.40
2023-01-09T23:30:19.070Z,2.10
2023-01-09T23:32:45.962Z,3.50
2023-01-09T23:35:12.541Z,4.73
2023-01-09T23:37:39.277Z,3.97
2023-01-09T23:40:06.187Z,4.07
2023-01-09T23:42:51.585Z,5.87
2023-01-09T23:45:18.453Z,3.33
2023-01-09T23:47:45.183Z,5.37
2023-01-09T23:50:11.893Z,4.83
2023-01-09T23:52:38.617Z,5.13
2023-01-09T23:55:05.828Z,4.07
2023-01-09T23:57:32.512Z,3.63
2023-01-09T23:59:59.436Z,5.47
